createdAt,value
2023-05-15T00:02:57.801Z,15.75
2023-05-15T00:07:59.425Z,15.79
2023-05-15T00:13:00.829Z,15.66
2023-05-15T00:18:02.221Z,15.72
2023-05-15T00:23:03.610Z,15.58
2023-05-15T00:28:04.931Z,15.51
2023-05-15T00:33:06.892Z,15.49
2023-05-15T00:38:08.268Z,15.38
2023-05-15T00:43:11.929Z,15.23
2023-05-15T00:48:13.889Z,15.29
2023-05-15T00:53:15.528Z,15.26
2023-05-15T00:58:18.223Z,15.26
2023-05-15T01:03:20.156Z,15.18
2023-05-15T01:08:38.840Z,15.17
2023-05-15T01:13:40.596Z,15.18
2023-05-15T01:18:41.990Z,15.13
2023-05-15T01:24:07.134Z,15.14
2023-05-15T01:29:12.487Z,15.11
2023-05-15T01:34:19.557Z,15.02
2023-05-15T01:39:26.077Z,15.01
2023-05-15T01:44:34.067Z,15.03
2023-05-15T01:49:36.552Z,14.92
2023-05-15T01:54:40.006Z,14.84
2023-05-15T01:59:42.614Z,14.86
2023-05-15T02:04:45.257Z,14.78
2023-05-15T02:09:47.193Z,14.73
2023-05-15T02:14:50.256Z,14.46
2023-05-15T02:19:51.642Z,14.59
2023-05-15T02:24:53.275Z,14.41
2023-05-15T02:30:04.265Z,14.46
2023-05-15T02:35:21.729Z,14.43
2023-05-15T02:40:24.904Z,14.43
2023-05-15T02:45:26.640Z,14.41
2023-05-15T02:50:28.450Z,14.22
2023-05-15T02:55:30.133Z,14.28
2023-05-15T03:00:31.625Z,14.22
2023-05-15T03:05:32.975Z,14.26
2023-05-15T03:10:34.502Z,14.25
2023-05-15T03:15:35.785Z,14.19
2023-05-15T03:20:37.124Z,14.26
2023-05-15T03:25:38.524Z,14.10
2023-05-15T03:30:39.858Z,14.11
2023-05-15T03:35:41.179Z,14.11
2023-05-15T03:40:42.906Z,14.08
2023-05-15T03:45:44.205Z,14.14
2023-05-15T03:50:46.921Z,14.17
2023-05-15T03:55:48.335Z,14.17
2023-05-15T04:00:49.683Z,14.13
2023-05-15T04:05:52.246Z,14.11
2023-05-15T04:10:54.722Z,14.12
2023-05-15T04:15:56.224Z,14.03
2023-05-15T04:20:57.641Z,14.00
2023-05-15T04:25:59.387Z,14.02
2023-05-15T04:31:01.260Z,14.08
2023-05-15T04:36:03.131Z,13.81
2023-05-15T04:41:04.417Z,14.00
2023-05-15T04:46:05.835Z,13.90
2023-05-15T04:51:07.606Z,13.91
2023-05-15T04:56:08.947Z,13.85
2023-05-15T05:01:10.263Z,13.93
2023-05-15T05:06:11.584Z,13.93
2023-05-15T05:11:13.087Z,14.10
2023-05-15T05:16:14.610Z,14.07
2023-05-15T05:21:16.001Z,14.20
2023-05-15T05:26:17.381Z,14.17
2023-05-15T05:31:18.803Z,14.31
2023-05-15T05:36:20.202Z,14.41
2023-05-15T05:41:21.660Z,14.38
2023-05-15T05:46:23.274Z,14.57
2023-05-15T05:51:24.584Z,14.63
2023-05-15T05:56:26.531Z,14.68
2023-05-15T06:01:28.016Z,14.81
2023-05-15T06:06:29.882Z,14.88
2023-05-15T06:11:31.526Z,15.05
2023-05-15T06:16:32.925Z,15.06
2023-05-15T06:21:34.263Z,15.35
2023-05-15T06:26:36.308Z,15.35
2023-05-15T06:31:37.661Z,15.24
2023-05-15T06:36:39.229Z,15.67
2023-05-15T06:41:40.556Z,15.77
2023-05-15T06:46:41.841Z,15.95
2023-05-15T06:51:43.372Z,16.04
2023-05-15T06:56:44.786Z,16.09
2023-05-15T07:01:46.127Z,16.22
2023-05-15T07:06:47.502Z,16.14
2023-05-15T07:11:48.779Z,16.33
2023-05-15T07:16:50.167Z,16.33
2023-05-15T07:21:51.827Z,16.44
2023-05-15T07:26:58.670Z,16.68
2023-05-15T07:32:01.228Z,16.74
2023-05-15T07:37:02.663Z,16.73
2023-05-15T07:42:04.355Z,17.08
2023-05-15T07:47:05.736Z,17.46
2023-05-15T07:52:07.356Z,17.70
2023-05-15T07:57:09.404Z,17.78
2023-05-15T08:02:10.783Z,17.97
2023-05-15T08:07:13.634Z,18.38
2023-05-15T08:12:21.030Z,17.95
2023-05-15T08:17:24.316Z,18.31
2023-05-15T08:22:25.662Z,18.51
2023-05-15T08:27:27.084Z,18.97
2023-05-15T08:32:28.452Z,18.97
2023-05-15T08:37:29.930Z,18.93
2023-05-15T08:42:51.103Z,19.12
2023-05-15T08:47:53.709Z,19.25
2023-05-15T08:52:58.314Z,19.59
2023-05-15T08:58:00.859Z,19.81
2023-05-15T09:03:02.291Z,19.79
2023-05-15T09:08:05.428Z,20.27
2023-05-15T09:13:07.958Z,20.27
2023-05-15T09:18:09.891Z,20.15
2023-05-15T09:23:26.217Z,20.46
2023-05-15T09:28:33.272Z,20.55
2023-05-15T09:33:37.291Z,20.51
2023-05-15T09:38:43.368Z,20.73
2023-05-15T09:43:44.864Z,21.14
2023-05-15T09:48:46.527Z,21.20
2023-05-15T09:53:55.239Z,21.25
2023-05-15T09:58:59.181Z,21.25
2023-05-15T10:04:03.421Z,21.06
2023-05-15T10:09:05.831Z,20.89
2023-05-15T10:14:09.333Z,20.56
2023-05-15T10:19:11.291Z,20.89
2023-05-15T10:24:14.048Z,21.46
2023-05-15T10:29:21.265Z,21.22
2023-05-15T10:34:23.830Z,21.07
2023-05-15T10:39:27.356Z,20.98
2023-05-15T10:44:28.619Z,20.70
2023-05-15T10:49:30.091Z,20.59
2023-05-15T10:54:31.660Z,20.14
2023-05-15T10:59:34.756Z,20.25
2023-05-15T11:04:36.400Z,20.68
2023-05-15T11:09:38.643Z,20.79
2023-05-15T11:14:44.145Z,20.76
2023-05-15T11:19:51.713Z,20.56
2023-05-15T11:25:12.325Z,20.46
2023-05-15T11:30:22.735Z,20.55
2023-05-15T11:35:36.911Z,20.61
2023-05-15T11:40:52.883Z,21.27
2023-05-15T11:45:57.595Z,21.87
2023-05-15T11:51:00.877Z,21.61
2023-05-15T11:56:02.309Z,21.35
2023-05-15T12:01:03.745Z,21.35
2023-05-15T12:06:05.284Z,21.27
2023-05-15T12:11:06.767Z,21.16
2023-05-15T12:16:08.161Z,21.12
2023-05-15T12:21:10.757Z,21.15
2023-05-15T12:26:12.217Z,21.35
2023-05-15T12:31:13.662Z,21.56
2023-05-15T12:36:15.652Z,21.49
2023-05-15T12:41:17.027Z,21.86
2023-05-15T12:46:23.313Z,21.89
2023-05-15T12:51:25.011Z,22.02
2023-05-15T12:56:29.215Z,22.07
2023-05-15T13:01:30.828Z,22.03
2023-05-15T13:06:44.876Z,22.03
2023-05-15T13:11:47.444Z,22.03
2023-05-15T13:16:48.902Z,21.88
2023-05-15T13:21:50.829Z,21.81
2023-05-15T13:26:52.822Z,21.91
2023-05-15T13:31:54.130Z,21.39
2023-05-15T13:36:55.471Z,20.84
2023-05-15T13:41:58.309Z,20.56
2023-05-15T13:47:04.207Z,20.55
2023-05-15T13:52:05.879Z,19.84
2023-05-15T13:57:07.592Z,19.55
2023-05-15T14:02:08.952Z,19.56
2023-05-15T14:07:10.574Z,19.34
2023-05-15T14:12:11.844Z,19.13
2023-05-15T14:17:13.583Z,18.91
2023-05-15T14:22:15.467Z,18.83
2023-05-15T14:27:19.000Z,18.45
2023-05-15T14:32:20.510Z,18.06
2023-05-15T14:37:21.845Z,18.16
2023-05-15T14:42:23.236Z,17.65
2023-05-15T14:47:25.258Z,17.13
2023-05-15T14:52:26.604Z,16.61
2023-05-15T14:57:27.950Z,16.50
2023-05-15T15:02:29.427Z,16.40
2023-05-15T15:07:30.869Z,16.38
2023-05-15T15:12:33.256Z,16.86
2023-05-15T15:17:34.614Z,16.91
2023-05-15T15:22:36.088Z,17.21
2023-05-15T15:27:37.930Z,17.21
2023-05-15T15:32:40.102Z,17.19
2023-05-15T15:37:41.571Z,17.19
2023-05-15T15:42:42.898Z,17.46
2023-05-15T15:47:44.791Z,17.42
2023-05-15T15:52:46.730Z,17.54
2023-05-15T15:57:48.098Z,17.41
2023-05-15T16:02:49.469Z,17.41
2023-05-15T16:07:50.929Z,17.60
2023-05-15T16:12:52.281Z,17.51
2023-05-15T16:17:54.721Z,17.62
2023-05-15T16:22:56.413Z,17.65
2023-05-15T16:27:57.713Z,17.62
2023-05-15T16:32:59.420Z,17.70
2023-05-15T16:38:00.777Z,17.67
2023-05-15T16:43:02.101Z,17.81
2023-05-15T16:48:03.795Z,17.82
2023-05-15T16:53:05.428Z,17.74
2023-05-15T16:58:06.801Z,17.88
2023-05-15T17:03:08.472Z,17.83
2023-05-15T17:08:09.894Z,17.94
2023-05-15T17:13:11.336Z,17.93
2023-05-15T17:18:12.683Z,17.95
2023-05-15T17:23:14.042Z,17.94
2023-05-15T17:28:15.550Z,17.99
2023-05-15T17:33:16.961Z,17.89
2023-05-15T17:38:18.289Z,18.04
2023-05-15T17:43:19.565Z,17.91
2023-05-15T17:48:20.879Z,18.06
2023-05-15T17:53:24.103Z,18.05
2023-05-15T17:58:25.484Z,18.04
2023-05-15T18:03:26.917Z,17.97
2023-05-15T18:08:28.424Z,17.93
2023-05-15T18:13:29.761Z,17.93
2023-05-15T18:18:31.418Z,17.80
2023-05-15T18:23:33.224Z,17.73
2023-05-15T18:28:34.513Z,17.72
2023-05-15T18:33:35.959Z,17.80
2023-05-15T18:38:37.421Z,17.61
2023-05-15T18:43:38.738Z,17.57
2023-05-15T18:48:40.240Z,17.59
2023-05-15T18:53:41.616Z,17.56
2023-05-15T18:58:43.348Z,17.48
2023-05-15T19:03:44.756Z,17.41
2023-05-15T19:08:48.174Z,17.46
2023-05-15T19:13:50.165Z,17.49
2023-05-15T19:18:51.656Z,17.46
2023-05-15T19:23:53.039Z,17.28
2023-05-15T19:28:54.874Z,17.46
2023-05-15T19:33:56.223Z,17.31
2023-05-15T19:38:57.811Z,17.39
2023-05-15T19:43:59.141Z,17.33
2023-05-15T19:49:01.011Z,17.43
2023-05-15T19:54:02.419Z,17.35
2023-05-15T19:59:03.838Z,17.26
2023-05-15T20:04:05.479Z,17.39
2023-05-15T20:09:06.900Z,17.36
2023-05-15T20:14:08.250Z,17.31
2023-05-15T20:19:10.930Z,17.20
2023-05-15T20:24:12.343Z,17.21
2023-05-15T20:29:13.650Z,17.23
2023-05-15T20:34:15.862Z,17.10
2023-05-15T20:39:17.398Z,17.10
2023-05-15T20:44:18.760Z,17.04
2023-05-15T20:49:20.515Z,16.98
2023-05-15T20:54:22.082Z,17.05
2023-05-15T20:59:23.607Z,17.03
2023-05-15T21:04:25.013Z,16.87
2023-05-15T21:09:26.352Z,16.87
2023-05-15T21:14:27.834Z,16.85
2023-05-15T21:19:29.161Z,16.89
2023-05-15T21:24:30.515Z,16.81
2023-05-15T21:29:32.010Z,16.75
2023-05-15T21:34:33.435Z,16.65
2023-05-15T21:39:34.767Z,16.74
2023-05-15T21:44:36.103Z,16.72
2023-05-15T21:49:37.447Z,16.61
2023-05-15T21:54:38.753Z,16.57
2023-05-15T21:59:40.110Z,16.55
2023-05-15T22:04:41.490Z,16.45
2023-05-15T22:09:43.401Z,16.43
2023-05-15T22:14:57.448Z,16.40
2023-05-15T22:20:07.691Z,16.21
2023-05-15T22:25:10.008Z,16.03
2023-05-15T22:30:11.830Z,15.95
2023-05-15T22:35:13.292Z,15.77
2023-05-15T22:40:15.011Z,15.82
2023-05-15T22:45:18.305Z,15.71
2023-05-15T22:50:20.140Z,15.61
2023-05-15T22:55:21.893Z,15.70
2023-05-15T23:00:23.408Z,15.73
2023-05-15T23:05:25.192Z,15.59
2023-05-15T23:10:26.823Z,15.78
2023-05-15T23:15:28.420Z,15.72
2023-05-15T23:20:30.171Z,15.80
2023-05-15T23:25:31.745Z,15.76
2023-05-15T23:30:33.597Z,15.63
2023-05-15T23:35:34.954Z,15.37
2023-05-15T23:40:36.644Z,15.51
2023-05-15T23:45:37.931Z,15.59
2023-05-15T23:50:39.240Z,15.54
2023-05-15T23:55:40.569Z,15.36
